Latest Weather Observations for Roebourne Airport

IDW60801

Issued at 8:33 am WST Tuesday 17 January 2017 (issued every 30 minutes, with the page automatically refreshed every 10 minutes)

About weather observations | Map of weather stations | Latest weather observations for WA | Other Formats
Station Details ID: 004090 Name: ROEBOURNE AERO Lat: -20.76 Lon: 117.16 Height: 10.7 m
Data from the previous 72 hours. | See also: Recent months at Roebourne Airport
Date/Time
WST
Temp
°C
App
Temp
°C
Dew
Point
°C
Rel
Hum
%
Delta-T
°C
Wind Press
QNH
hPa
Press
MSL
hPa
Rain since
9am
mm
Dir  Spd
km/h
Gust
km/h
Spd
kts
Gust
kts
17/08:30am 29.9 32.8 21.8 62 5.5 WNW 9 19 5 10 1006.8 1006.7 0.0
17/08:00am 29.0 31.0 21.5 64 5.0 W 13 17 7 9 1006.8 1006.7 0.0
17/07:30am 28.3 30.2 22.1 69 4.2 W 15 19 8 10 1006.8 1006.7 0.0
17/07:00am 27.4 30.3 22.4 74 3.4 WSW 11 17 6 9 1007.1 1007.0 0.0
17/06:30am 26.7 29.0 22.1 76 3.1 WSW 13 15 7 8 1006.8 1006.7 0.0
17/06:00am 26.6 29.0 22.2 77 3.0 WSW 13 17 7 9 1006.4 1006.3 0.0
17/05:30am 26.5 28.9 22.3 78 2.8 WSW 13 15 7 8 1006.1 1006.0 0.0
17/05:00am 26.8 29.2 22.2 76 3.1 W 13 17 7 9 1005.8 1005.7 0.0
17/04:30am 27.2 29.3 22.4 75 3.2 W 15 17 8 9 1005.3 1005.2 0.0
17/04:00am 27.2 29.7 22.4 75 3.2 W 13 19 7 10 1005.1 1005.0 0.0
17/03:30am 27.4 29.6 22.6 75 3.2 WSW 15 17 8 9 1005.2 1005.1 0.0
17/03:00am 27.6 29.5 22.8 75 3.3 W 17 22 9 12 1005.2 1005.1 0.0
17/02:30am 27.6 29.0 22.5 74 3.4 W 19 24 10 13 1005.1 1005.0 0.0
17/02:00am 27.4 28.8 21.9 72 3.7 W 17 20 9 11 1005.2 1005.1 0.0
17/01:30am 27.7 28.9 22.2 72 3.7 W 19 22 10 12 1005.3 1005.2 0.0
17/01:00am 27.8 29.2 22.5 73 3.6 WSW 19 24 10 13 1005.5 1005.4 0.0
17/12:30am 27.9 29.7 22.6 73 3.6 W 17 20 9 11 1005.8 1005.7 0.0
17/12:00am 27.6 30.0 23.0 76 3.1 W 15 19 8 10 1006.2 1006.1 0.0
 
Date/Time
WST
Temp
°C
App
Temp
°C
Dew
Point
°C
Rel
Hum
%
Delta-T
°C
Wind Press
QNH
hPa
Press
MSL
hPa
Rain since
9am
mm
Dir  Spd
km/h
Gust
km/h
Spd
kts
Gust
kts
16/11:30pm 27.8 30.0 23.2 76 3.1 W 17 20 9 11 1006.5 1006.4 0.0
16/11:00pm 27.9 30.2 22.8 74 3.5 WSW 15 19 8 10 1006.9 1006.8 0.0
16/10:30pm 28.0 30.4 22.9 74 3.5 W 15 20 8 11 1006.9 1006.8 0.0
16/10:00pm 28.2 30.3 23.1 74 3.5 W 17 20 9 11 1007.0 1006.9 0.0
16/09:30pm 28.5 30.7 23.2 73 3.6 WNW 17 20 9 11 1006.7 1006.6 0.0
16/09:00pm 28.6 30.4 23.5 74 3.5 W 20 24 11 13 1006.4 1006.3 0.0
16/08:30pm 29.0 30.9 23.7 73 3.7 WNW 20 26 11 14 1005.9 1005.8 0.0
16/08:00pm 29.2 31.1 23.4 71 4.0 W 19 24 10 13 1005.5 1005.4 0.0
16/07:30pm 29.5 31.2 23.4 69 4.2 WNW 20 26 11 14 1005.0 1004.9 0.0
16/07:00pm 30.0 30.9 23.4 67 4.6 NW 24 28 13 15 1004.6 1004.5 0.0
16/06:30pm 30.5 31.4 22.7 63 5.3 NW 22 28 12 15 1004.3 1004.2 0.0
16/06:00pm 31.6 32.5 23.4 61 5.7 NW 24 28 13 15 1003.9 1003.8 0.0
16/05:30pm 32.0 32.9 23.3 60 6.0 NW 24 32 13 17 1003.8 1003.7 0.0
16/05:00pm 32.6 33.5 23.3 58 6.5 NNW 24 30 13 16 1003.8 1003.7 0.0
16/04:30pm 33.8 35.4 23.2 54 7.3 NW 20 28 11 15 1003.8 1003.7 0.0
16/04:00pm 33.3 34.9 23.3 55 6.9 NNW 20 32 11 17 1003.9 1003.8 0.0
16/03:30pm 33.5 34.5 22.9 53 7.3 NNW 22 30 12 16 1004.1 1004.0 0.0
16/03:00pm 34.0 34.8 23.1 53 7.6 N 24 33 13 18 1004.3 1004.2 0.0
16/02:30pm 35.1 36.7 22.8 49 8.5 N 19 32 10 17 1004.5 1004.4 0.0
16/02:00pm 33.5 35.1 23.2 54 7.1 N 20 32 11 17 1004.8 1004.7 0.0
16/01:30pm 33.9 36.1 24.2 57 6.8 N 20 32 11 17 1004.9 1004.8 0.0
16/01:00pm 33.6 35.0 24.2 58 6.6 NNE 24 35 13 19 1005.2 1005.1 0.0
16/12:30pm 33.0 34.4 23.6 57 6.5 NNE 22 32 12 17 1005.4 1005.3 0.0
16/12:00pm 34.1 36.0 24.4 57 6.8 NNE 22 28 12 15 1005.6 1005.5 0.0
16/11:30am 33.1 34.8 24.0 59 6.4 NNE 22 30 12 16 1005.8 1005.7 0.0
16/11:00am 33.3 35.5 24.2 59 6.4 NNE 20 28 11 15 1006.1 1006.0 0.0
16/10:30am 31.1 33.4 23.5 64 5.3 N 17 28 9 15 1006.5 1006.4 0.0
16/10:00am 32.8 36.7 22.9 56 6.8 NE 7 15 4 8 1006.6 1006.5 0.0
16/09:30am 30.8 35.6 22.9 62 5.4 SW 2 7 1 4 1006.8 1006.7 0.0
16/09:00am 31.0 36.2 23.6 64 5.1 WNW 2 9 1 5 1006.9 1006.8 0.4
16/08:30am 29.5 34.0 23.7 71 4.0 NW 6 11 3 6 1007.0 1006.9 0.4
16/08:00am 29.3 34.2 24.4 75 3.4 S 6 11 3 6 1006.9 1006.8 0.4
16/07:30am 27.9 32.5 24.7 83 2.2 SSW 9 13 5 7 1006.9 1006.8 0.4
16/07:00am 27.0 31.2 25.4 91 1.1 SW 13 15 7 8 1006.8 1006.7 0.4
16/06:30am 26.4 31.8 25.4 94 0.7 SW 7 11 4 6 1006.5 1006.4 0.4
16/06:00am 26.1 30.8 24.9 93 0.8 SW 9 9 5 5 1006.1 1006.0 0.4
16/05:30am 26.1 30.8 24.9 93 0.8 SW 9 13 5 7 1005.8 1005.7 0.4
16/05:00am 26.7 32.1 25.1 91 1.1 WSW 6 9 3 5 1005.6 1005.5 0.4
16/04:30am 26.7 32.8 25.1 91 1.1 WNW 2 7 1 4 1005.5 1005.4 0.4
16/04:00am 26.4 32.2 24.6 90 1.3 NNW 2 6 1 3 1005.3 1005.2 0.4
16/03:30am 26.4 31.6 24.8 91 1.1 NNW 6 7 3 4 1005.3 1005.2 0.4
16/03:00am 26.3 31.4 24.9 92 1.0 N 7 7 4 4 1005.4 1005.3 0.4
16/02:30am 26.5 31.8 24.9 91 1.1 N 6 7 3 4 1005.6 1005.5 0.4
16/02:00am 26.5 30.7 24.7 90 1.3 NNW 11 15 6 8 1005.8 1005.7 0.4
16/01:30am 26.9 31.8 25.3 91 1.1 NNW 9 13 5 7 1005.8 1005.7 0.4
16/01:00am 26.8 29.8 24.6 88 1.5 NNW 17 24 9 13 1006.2 1006.1 0.2
16/12:30am 28.1 31.7 24.3 80 2.6 N 13 17 7 9 1006.4 1006.3 0.0
16/12:00am 28.1 32.4 24.3 80 2.6 NNE 9 15 5 8 1006.7 1006.6 0.0
 
Date/Time
WST
Temp
°C
App
Temp
°C
Dew
Point
°C
Rel
Hum
%
Delta-T
°C
Wind Press
QNH
hPa
Press
MSL
hPa
Rain since
9am
mm
Dir  Spd
km/h
Gust
km/h
Spd
kts
Gust
kts
15/11:30pm 27.8 32.5 24.0 80 2.6 N 6 7 3 4 1006.9 1006.8 0.0
15/11:00pm 27.9 32.5 24.1 80 2.6 N 7 9 4 5 1007.2 1007.1 0.0
15/10:30pm 28.0 32.1 24.0 79 2.8 N 9 11 5 6 1007.2 1007.1 0.0
15/10:00pm 28.2 31.8 23.8 77 3.0 N 11 13 6 7 1007.1 1007.0 0.0
15/09:30pm 28.1 32.1 23.7 77 3.0 N 9 13 5 7 1007.0 1006.9 0.0
15/09:00pm 28.3 31.9 23.7 76 3.2 NNE 11 13 6 7 1006.9 1006.8 0.0
15/08:30pm 28.4 31.5 23.5 75 3.4 NNE 13 15 7 8 1006.7 1006.6 0.0
15/08:00pm 28.6 31.4 23.7 75 3.4 NNE 15 17 8 9 1006.5 1006.4 0.0
15/07:30pm 29.0 31.8 23.7 73 3.7 N 15 20 8 11 1006.1 1006.0 0.0
15/07:00pm 29.2 31.5 23.4 71 4.0 N 17 20 9 11 1005.7 1005.6 0.0
15/06:30pm 29.7 31.3 23.2 68 4.5 NNE 20 26 11 14 1005.5 1005.4 0.0
15/06:00pm 30.2 31.5 23.4 67 4.7 NNE 22 28 12 15 1005.1 1005.0 0.0
15/05:30pm 30.1 30.8 23.0 65 4.9 NNE 24 32 13 17 1004.6 1004.5 0.0
15/05:00pm 31.1 32.3 23.2 63 5.5 N 22 28 12 15 1004.5 1004.4 0.0
15/04:30pm 31.6 33.0 24.2 65 5.2 NNE 24 32 13 17 1004.5 1004.4 0.0
15/04:00pm 31.8 32.7 23.9 63 5.5 NNE 26 33 14 18 1004.6 1004.5 0.0
15/03:30pm 31.9 32.6 23.7 62 5.7 NNE 26 35 14 19 1004.9 1004.8 0.0
15/03:00pm 32.2 32.9 23.7 61 5.9 NNE 26 33 14 18 1004.8 1004.7 0.0
15/02:30pm 33.1 34.2 23.7 57 6.5 NNE 24 32 13 17 1005.0 1004.9 0.0
15/02:00pm 32.4 33.2 23.1 58 6.4 NNE 24 33 13 18 1005.3 1005.2 0.0
15/01:30pm 33.0 33.7 23.6 57 6.5 NNE 26 32 14 17 1005.6 1005.5 0.0
15/01:00pm 33.0 33.9 23.9 59 6.4 NNE 26 33 14 18 1005.8 1005.7 0.0
15/12:30pm 32.3 33.3 23.5 59 6.1 NNE 24 33 13 18 1005.9 1005.8 0.0
15/12:00pm 33.7 35.4 24.6 59 6.4 NNE 24 37 13 20 1006.0 1005.9 0.0
15/11:30am 32.8 33.5 23.7 58 6.3 NNE 26 37 14 20 1006.1 1006.0 0.0
15/11:00am 32.6 33.8 23.8 59 6.1 NNE 24 33 13 18 1006.2 1006.1 0.0
15/10:30am 33.1 33.7 22.8 54 7.1 NE 24 32 13 17 1006.3 1006.2 0.0
15/10:00am 31.9 33.4 23.7 62 5.7 NNE 22 28 12 15 1006.4 1006.3 0.0
15/09:30am 31.5 33.5 23.9 64 5.3 NNE 20 30 11 16 1006.4 1006.3 0.0
15/09:00am 30.6 32.9 23.5 66 4.9 NE 17 26 9 14 1006.5 1006.4 0.0
15/08:30am 30.3 33.0 24.2 70 4.2 NE 17 20 9 11 1006.6 1006.5 0.0
15/08:00am 29.4 32.7 24.5 75 3.4 E 15 20 8 11 1006.6 1006.5 0.0
15/07:30am 29.1 33.0 24.9 78 2.9 ESE 13 17 7 9 1006.7 1006.6 0.0
15/07:00am 27.8 31.4 25.0 85 2.0 ESE 15 17 8 9 1006.6 1006.5 0.0
15/06:30am 27.1 32.0 25.3 90 1.3 SE 9 13 5 7 1006.3 1006.2 0.0
15/06:00am 26.3 31.2 24.7 91 1.1 SSE 7 9 4 5 1006.0 1005.9 0.0
15/05:30am 26.4 30.9 24.6 90 1.2 ESE 9 11 5 6 1005.7 1005.6 0.0
15/05:00am 26.5 31.3 24.5 89 1.4 SSE 7 7 4 4 1005.7 1005.6 0.0
15/04:30am 26.4 31.2 24.4 89 1.4 SSE 7 9 4 5 1005.6 1005.5 0.0
15/04:00am 26.4 30.8 24.4 89 1.4 SE 9 11 5 6 1005.4 1005.3 0.0
15/03:30am 26.3 31.6 24.9 92 1.0 SSE 6 7 3 4 1005.2 1005.1 0.0
15/03:00am 26.2 32.2 24.8 92 1.0 SSE 2 7 1 4 1005.0 1004.9 0.0
15/02:30am 26.1 31.2 24.7 92 1.0 S 6 7 3 4 1005.2 1005.1 0.0
15/02:00am 26.1 30.9 24.5 91 1.1 E 7 9 4 5 1005.2 1005.1 0.0
15/01:30am 26.2 30.6 24.4 90 1.2 E 9 11 5 6 1005.5 1005.4 0.0
15/01:00am 26.2 31.0 24.4 90 1.2 SE 7 9 4 5 1005.7 1005.6 0.0
15/12:30am 26.3 30.6 24.3 89 1.4 S 9 11 5 6 1005.8 1005.7 0.0
15/12:00am 26.5 30.3 24.0 86 1.7 S 11 15 6 8 1006.1 1006.0 0.0
 
Date/Time
WST
Temp
°C
App
Temp
°C
Dew
Point
°C
Rel
Hum
%
Delta-T
°C
Wind Press
QNH
hPa
Press
MSL
hPa
Rain since
9am
mm
Dir  Spd
km/h
Gust
km/h
Spd
kts
Gust
kts
14/11:30pm 26.5 30.6 24.0 86 1.7 S 9 11 5 6 1006.2 1006.1 0.0
14/11:00pm 26.4 30.9 23.7 85 1.9 SSW 6 7 3 4 1006.2 1006.1 0.0
14/10:30pm 26.4 30.7 23.3 83 2.1 S 6 7 3 4 1006.2 1006.1 0.0
14/10:00pm 26.5 30.7 23.4 83 2.1 W 7 9 4 5 1006.5 1006.4 0.0
14/09:30pm 26.3 29.6 23.2 83 2.1 WSW 11 15 6 8 1006.6 1006.5 0.0
14/09:00pm 26.0 28.0 22.9 83 2.1 WSW 17 28 9 15 1006.6 1006.5 0.0
14/08:30pm 26.0 26.8 22.5 81 2.4 W 22 30 12 16 1006.3 1006.2 0.0
14/08:03pm 27.0 27.7 21.5 72 3.7 NW 20 39 11 21 1006.3 1006.2 0.0
14/08:00pm 28.9 32.2 25.1 80 2.7 NNW 17 19 9 10 1006.2 1006.1 0.0
14/07:30pm 28.8 31.6 25.0 80 2.7 N 19 24 10 13 1005.0 1004.9 0.0
14/07:00pm 29.1 32.1 25.3 80 2.7 N 19 24 10 13 1004.5 1004.4 0.0
14/06:30pm 29.4 32.2 25.2 78 3.0 NNE 20 26 11 14 1003.9 1003.8 0.0
14/06:00pm 29.7 32.0 25.0 76 3.3 NNE 22 30 12 16 1003.4 1003.3 0.0
14/05:30pm 30.1 32.2 25.4 76 3.3 NNE 24 32 13 17 1002.8 1002.7 0.0
14/05:00pm 30.9 32.2 25.3 72 4.0 NE 28 32 15 17 1002.2 1002.1 0.0
14/04:30pm 32.2 33.2 24.8 65 5.2 NE 28 33 15 18 1002.3 1002.2 0.0
14/04:00pm 32.3 33.8 24.9 65 5.2 ENE 26 33 14 18 1002.6 1002.5 0.0
14/03:30pm 33.1 34.4 23.4 56 6.7 E 22 30 12 16 1002.8 1002.7 0.0
14/03:00pm 33.2 34.6 23.5 56 6.8 ESE 22 32 12 17 1003.3 1003.2 0.0
14/02:30pm 33.3 34.7 23.6 56 6.7 ESE 22 28 12 15 1003.9 1003.8 0.0
14/02:00pm 33.6 34.9 23.3 55 7.2 SE 22 33 12 18 1004.2 1004.1 0.0
14/01:30pm 33.2 34.5 24.1 59 6.4 ESE 24 35 13 19 1004.4 1004.3 0.0
14/01:00pm 33.7 34.1 23.1 54 7.4 ESE 26 33 14 18 1004.7 1004.6 0.0
14/12:30pm 34.1 35.6 24.4 57 6.8 SE 24 35 13 19 1004.8 1004.7 0.0
14/12:00pm 33.2 33.4 23.5 56 6.8 ESE 28 37 15 20 1004.9 1004.8 0.0
14/11:30am 33.3 35.1 24.2 59 6.4 ESE 22 33 12 18 1005.0 1004.9 0.0
14/11:00am 32.6 33.9 24.1 61 6.0 ESE 24 33 13 18 1005.1 1005.0 0.0
14/10:30am 31.9 34.2 24.5 65 5.2 SE 20 30 11 16 1005.2 1005.1 0.0
14/10:00am 31.5 33.9 24.6 67 4.9 SE 20 30 11 16 1005.5 1005.4 0.0
14/09:30am 30.2 32.5 24.4 71 4.0 SE 20 28 11 15 1005.6 1005.5 0.0
14/09:00am 29.4 32.1 24.7 76 3.3 SE 19 22 10 12 1005.7 1005.6 8.0

Other Formats:

Comma delimited format used in spreadsheet applications
http://www.bom.gov.au/fwo/IDW60801/IDW60801.94308.axf

JavaScript Object Notation format (JSON) in row-major order
http://www.bom.gov.au/fwo/IDW60801/IDW60801.94308.json